sensor_id;sensor_type;location;lat;lon;timestamp;P1;durP1;ratioP1;P2;durP2;ratioP2
3991;SDS011;2010;48.194;16.394;2022-07-23T00:01:34;8.60;;;7.80;;
3991;SDS011;2010;48.194;16.394;2022-07-23T00:04:16;9.57;;;8.60;;
3991;SDS011;2010;48.194;16.394;2022-07-23T00:06:54;11.30;;;8.97;;
3991;SDS011;2010;48.194;16.394;2022-07-23T00:09:36;9.43;;;8.50;;
3991;SDS011;2010;48.194;16.394;2022-07-23T00:12:17;10.50;;;8.60;;
3991;SDS011;2010;48.194;16.394;2022-07-23T00:14:49;12.40;;;8.57;;
3991;SDS011;2010;48.194;16.394;2022-07-23T00:17:29;12.97;;;7.90;;
3991;SDS011;2010;48.194;16.394;2022-07-23T00:20:01;8.33;;;7.50;;
3991;SDS011;2010;48.194;16.394;2022-07-23T00:22:45;8.60;;;7.90;;
3991;SDS011;2010;48.194;16.394;2022-07-23T00:25:22;10.03;;;9.03;;
3991;SDS011;2010;48.194;16.394;2022-07-23T00:28:05;9.40;;;8.43;;
3991;SDS011;2010;48.194;16.394;2022-07-23T00:30:38;9.33;;;8.17;;
3991;SDS011;2010;48.194;16.394;2022-07-23T00:33:16;8.23;;;7.53;;
3991;SDS011;2010;48.194;16.394;2022-07-23T00:35:51;10.37;;;7.40;;
3991;SDS011;2010;48.194;16.394;2022-07-23T00:38:28;9.90;;;7.20;;
3991;SDS011;2010;48.194;16.394;2022-07-23T00:41:05;13.43;;;7.80;;
3991;SDS011;2010;48.194;16.394;2022-07-23T00:43:34;12.40;;;8.00;;
3991;SDS011;2010;48.194;16.394;2022-07-23T00:46:18;10.60;;;8.27;;
3991;SDS011;2010;48.194;16.394;2022-07-23T00:48:58;8.30;;;7.60;;
3991;SDS011;2010;48.194;16.394;2022-07-23T00:51:41;10.13;;;7.70;;
3991;SDS011;2010;48.194;16.394;2022-07-23T00:54:17;9.30;;;7.40;;
3991;SDS011;2010;48.194;16.394;2022-07-23T00:56:52;9.93;;;7.90;;
3991;SDS011;2010;48.194;16.394;2022-07-23T00:59:33;8.90;;;8.00;;
3991;SDS011;2010;48.194;16.394;2022-07-23T01:02:09;8.60;;;7.83;;
3991;SDS011;2010;48.194;16.394;2022-07-23T01:04:54;8.47;;;7.13;;
3991;SDS011;2010;48.194;16.394;2022-07-23T01:07:34;8.67;;;7.83;;
3991;SDS011;2010;48.194;16.394;2022-07-23T01:10:05;8.23;;;7.63;;
3991;SDS011;2010;48.194;16.394;2022-07-23T01:13:06;8.57;;;7.70;;
3991;SDS011;2010;48.194;16.394;2022-07-23T01:15:47;8.60;;;7.80;;
3991;SDS011;2010;48.194;16.394;2022-07-23T01:18:25;9.43;;;8.17;;
3991;SDS011;2010;48.194;16.394;2022-07-23T01:21:19;8.63;;;7.73;;
3991;SDS011;2010;48.194;16.394;2022-07-23T01:23:55;9.33;;;7.60;;
3991;SDS011;2010;48.194;16.394;2022-07-23T01:26:26;14.30;;;7.93;;
3991;SDS011;2010;48.194;16.394;2022-07-23T01:29:02;10.07;;;8.03;;
3991;SDS011;2010;48.194;16.394;2022-07-23T01:31:41;12.17;;;8.13;;
3991;SDS011;2010;48.194;16.394;2022-07-23T01:34:21;16.13;;;8.80;;
3991;SDS011;2010;48.194;16.394;2022-07-23T01:37:04;10.30;;;9.27;;
3991;SDS011;2010;48.194;16.394;2022-07-23T01:40:01;12.90;;;9.80;;
3991;SDS011;2010;48.194;16.394;2022-07-23T01:42:38;9.50;;;8.63;;
3991;SDS011;2010;48.194;16.394;2022-07-23T01:45:17;9.33;;;8.43;;
3991;SDS011;2010;48.194;16.394;2022-07-23T01:47:54;11.57;;;9.60;;
3991;SDS011;2010;48.194;16.394;2022-07-23T01:50:27;11.33;;;9.90;;
3991;SDS011;2010;48.194;16.394;2022-07-23T01:53:24;9.60;;;8.80;;
3991;SDS011;2010;48.194;16.394;2022-07-23T01:55:59;11.03;;;9.20;;
3991;SDS011;2010;48.194;16.394;2022-07-23T01:58:32;10.77;;;9.60;;
3991;SDS011;2010;48.194;16.394;2022-07-23T02:01:10;11.47;;;9.40;;
3991;SDS011;2010;48.194;16.394;2022-07-23T02:03:43;11.50;;;10.40;;
3991;SDS011;2010;48.194;16.394;2022-07-23T02:06:30;11.77;;;10.50;;
3991;SDS011;2010;48.194;16.394;2022-07-23T02:09:01;11.77;;;10.70;;
3991;SDS011;2010;48.194;16.394;2022-07-23T02:11:51;11.27;;;10.30;;
3991;SDS011;2010;48.194;16.394;2022-07-23T02:14:26;11.37;;;10.40;;
3991;SDS011;2010;48.194;16.394;2022-07-23T02:17:03;12.80;;;9.83;;
3991;SDS011;2010;48.194;16.394;2022-07-23T02:19:35;14.23;;;10.20;;
3991;SDS011;2010;48.194;16.394;2022-07-23T02:22:06;9.97;;;9.10;;
3991;SDS011;2010;48.194;16.394;2022-07-23T02:24:40;10.17;;;9.17;;
3991;SDS011;2010;48.194;16.394;2022-07-23T02:27:34;12.37;;;9.73;;
3991;SDS011;2010;48.194;16.394;2022-07-23T02:30:10;11.27;;;10.10;;
3991;SDS011;2010;48.194;16.394;2022-07-23T02:32:52;11.93;;;9.77;;
3991;SDS011;2010;48.194;16.394;2022-07-23T02:35:28;9.63;;;8.80;;
3991;SDS011;2010;48.194;16.394;2022-07-23T02:38:08;10.40;;;9.40;;
3991;SDS011;2010;48.194;16.394;2022-07-23T02:40:53;9.90;;;9.03;;
3991;SDS011;2010;48.194;16.394;2022-07-23T02:43:39;10.40;;;9.37;;
3991;SDS011;2010;48.194;16.394;2022-07-23T02:46:14;10.77;;;9.77;;
3991;SDS011;2010;48.194;16.394;2022-07-23T02:48:51;9.00;;;8.20;;
3991;SDS011;2010;48.194;16.394;2022-07-23T02:51:35;9.13;;;8.43;;
3991;SDS011;2010;48.194;16.394;2022-07-23T02:54:19;9.17;;;8.27;;
3991;SDS011;2010;48.194;16.394;2022-07-23T02:56:51;10.70;;;9.70;;
3991;SDS011;2010;48.194;16.394;2022-07-23T02:59:30;10.03;;;9.20;;
3991;SDS011;2010;48.194;16.394;2022-07-23T03:02:09;10.10;;;8.70;;
3991;SDS011;2010;48.194;16.394;2022-07-23T03:04:44;10.30;;;8.63;;
3991;SDS011;2010;48.194;16.394;2022-07-23T03:07:21;10.07;;;9.10;;
3991;SDS011;2010;48.194;16.394;2022-07-23T03:09:53;10.60;;;8.93;;
3991;SDS011;2010;48.194;16.394;2022-07-23T03:12:25;9.17;;;8.47;;
3991;SDS011;2010;48.194;16.394;2022-07-23T03:15:07;9.37;;;8.47;;
3991;SDS011;2010;48.194;16.394;2022-07-23T03:17:44;10.70;;;9.80;;
3991;SDS011;2010;48.194;16.394;2022-07-23T03:20:35;9.43;;;8.60;;
3991;SDS011;2010;48.194;16.394;2022-07-23T03:23:11;10.60;;;9.70;;
3991;SDS011;2010;48.194;16.394;2022-07-23T03:25:43;10.93;;;8.37;;
3991;SDS011;2010;48.194;16.394;2022-07-23T03:28:26;10.17;;;9.27;;
3991;SDS011;2010;48.194;16.394;2022-07-23T03:31:13;9.83;;;8.93;;
3991;SDS011;2010;48.194;16.394;2022-07-23T03:33:49;10.40;;;9.50;;
3991;SDS011;2010;48.194;16.394;2022-07-23T03:36:25;10.00;;;9.00;;
3991;SDS011;2010;48.194;16.394;2022-07-23T03:39:07;9.13;;;8.33;;
3991;SDS011;2010;48.194;16.394;2022-07-23T03:41:44;10.03;;;9.20;;
3991;SDS011;2010;48.194;16.394;2022-07-23T03:44:26;9.27;;;8.57;;
3991;SDS011;2010;48.194;16.394;2022-07-23T03:47:16;9.23;;;8.53;;
3991;SDS011;2010;48.194;16.394;2022-07-23T03:49:50;9.80;;;8.80;;
3991;SDS011;2010;48.194;16.394;2022-07-23T03:52:25;9.97;;;9.17;;
3991;SDS011;2010;48.194;16.394;2022-07-23T03:55:05;13.53;;;9.23;;
3991;SDS011;2010;48.194;16.394;2022-07-23T03:57:36;10.20;;;9.10;;
3991;SDS011;2010;48.194;16.394;2022-07-23T04:00:08;9.50;;;8.70;;
3991;SDS011;2010;48.194;16.394;2022-07-23T04:03:06;11.13;;;9.70;;
3991;SDS011;2010;48.194;16.394;2022-07-23T04:05:47;11.00;;;9.37;;
3991;SDS011;2010;48.194;16.394;2022-07-23T04:08:23;13.50;;;9.80;;
3991;SDS011;2010;48.194;16.394;2022-07-23T04:11:02;16.23;;;9.40;;
3991;SDS011;2010;48.194;16.394;2022-07-23T04:13:36;10.27;;;9.37;;
3991;SDS011;2010;48.194;16.394;2022-07-23T04:16:08;10.17;;;9.30;;
3991;SDS011;2010;48.194;16.394;2022-07-23T04:18:51;10.30;;;9.47;;
3991;SDS011;2010;48.194;16.394;2022-07-23T04:21:32;11.90;;;9.80;;
3991;SDS011;2010;48.194;16.394;2022-07-23T04:24:14;10.67;;;9.67;;
3991;SDS011;2010;48.194;16.394;2022-07-23T04:26:58;14.57;;;8.13;;
3991;SDS011;2010;48.194;16.394;2022-07-23T04:29:46;9.80;;;8.13;;
3991;SDS011;2010;48.194;16.394;2022-07-23T04:32:20;9.30;;;8.50;;
3991;SDS011;2010;48.194;16.394;2022-07-23T04:35:03;10.10;;;9.20;;
3991;SDS011;2010;48.194;16.394;2022-07-23T04:37:43;9.97;;;8.97;;
3991;SDS011;2010;48.194;16.394;2022-07-23T04:40:13;9.83;;;8.97;;
3991;SDS011;2010;48.194;16.394;2022-07-23T04:42:50;9.67;;;8.97;;
3991;SDS011;2010;48.194;16.394;2022-07-23T04:45:31;10.20;;;8.70;;
3991;SDS011;2010;48.194;16.394;2022-07-23T04:48:10;10.10;;;9.23;;
3991;SDS011;2010;48.194;16.394;2022-07-23T04:50:55;9.97;;;9.07;;
3991;SDS011;2010;48.194;16.394;2022-07-23T04:53:32;9.83;;;8.83;;
3991;SDS011;2010;48.194;16.394;2022-07-23T04:56:12;11.13;;;10.00;;
3991;SDS011;2010;48.194;16.394;2022-07-23T04:58:49;10.23;;;9.33;;
3991;SDS011;2010;48.194;16.394;2022-07-23T05:01:33;10.37;;;9.30;;
3991;SDS011;2010;48.194;16.394;2022-07-23T05:04:17;16.10;;;9.30;;
3991;SDS011;2010;48.194;16.394;2022-07-23T05:06:54;10.30;;;9.50;;
3991;SDS011;2010;48.194;16.394;2022-07-23T05:09:36;9.13;;;8.33;;
3991;SDS011;2010;48.194;16.394;2022-07-23T05:12:17;8.83;;;8.00;;
3991;SDS011;2010;48.194;16.394;2022-07-23T05:14:50;10.90;;;8.57;;
3991;SDS011;2010;48.194;16.394;2022-07-23T05:17:25;11.40;;;10.00;;
3991;SDS011;2010;48.194;16.394;2022-07-23T05:20:05;10.07;;;8.30;;
3991;SDS011;2010;48.194;16.394;2022-07-23T05:22:52;9.90;;;9.10;;
3991;SDS011;2010;48.194;16.394;2022-07-23T05:25:22;11.07;;;10.00;;
3991;SDS011;2010;48.194;16.394;2022-07-23T05:28:00;10.40;;;9.40;;
3991;SDS011;2010;48.194;16.394;2022-07-23T05:30:39;10.67;;;9.60;;
3991;SDS011;2010;48.194;16.394;2022-07-23T05:33:19;9.40;;;8.60;;
3991;SDS011;2010;48.194;16.394;2022-07-23T05:35:51;10.37;;;9.47;;
3991;SDS011;2010;48.194;16.394;2022-07-23T05:38:35;8.53;;;7.83;;
3991;SDS011;2010;48.194;16.394;2022-07-23T05:41:05;9.80;;;8.80;;
3991;SDS011;2010;48.194;16.394;2022-07-23T05:43:37;10.63;;;9.73;;
3991;SDS011;2010;48.194;16.394;2022-07-23T05:46:11;9.97;;;9.07;;
3991;SDS011;2010;48.194;16.394;2022-07-23T05:48:45;10.60;;;9.23;;
3991;SDS011;2010;48.194;16.394;2022-07-23T05:52:02;11.83;;;10.53;;
3991;SDS011;2010;48.194;16.394;2022-07-23T05:55:05;11.07;;;9.87;;
3991;SDS011;2010;48.194;16.394;2022-07-23T05:57:38;11.60;;;8.87;;
3991;SDS011;2010;48.194;16.394;2022-07-23T06:00:13;10.93;;;9.93;;
3991;SDS011;2010;48.194;16.394;2022-07-23T06:02:53;11.40;;;10.33;;
3991;SDS011;2010;48.194;16.394;2022-07-23T06:05:37;11.73;;;10.63;;
3991;SDS011;2010;48.194;16.394;2022-07-23T06:08:08;11.23;;;10.10;;
3991;SDS011;2010;48.194;16.394;2022-07-23T06:10:45;11.80;;;10.70;;
3991;SDS011;2010;48.194;16.394;2022-07-23T06:13:18;12.13;;;10.50;;
3991;SDS011;2010;48.194;16.394;2022-07-23T06:15:57;12.80;;;10.33;;
3991;SDS011;2010;48.194;16.394;2022-07-23T06:18:33;10.57;;;9.50;;
3991;SDS011;2010;48.194;16.394;2022-07-23T06:21:11;10.10;;;9.27;;
3991;SDS011;2010;48.194;16.394;2022-07-23T06:24:01;9.83;;;8.97;;
3991;SDS011;2010;48.194;16.394;2022-07-23T06:26:42;10.50;;;9.70;;
3991;SDS011;2010;48.194;16.394;2022-07-23T06:29:23;10.50;;;9.50;;
3991;SDS011;2010;48.194;16.394;2022-07-23T06:32:18;8.80;;;8.00;;
3991;SDS011;2010;48.194;16.394;2022-07-23T06:35:00;9.80;;;8.90;;
3991;SDS011;2010;48.194;16.394;2022-07-23T06:37:34;10.57;;;9.63;;
3991;SDS011;2010;48.194;16.394;2022-07-23T06:40:11;12.13;;;9.47;;
3991;SDS011;2010;48.194;16.394;2022-07-23T06:43:01;10.33;;;8.30;;
3991;SDS011;2010;48.194;16.394;2022-07-23T06:45:39;9.50;;;8.73;;
3991;SDS011;2010;48.194;16.394;2022-07-23T06:48:16;8.10;;;7.40;;
3991;SDS011;2010;48.194;16.394;2022-07-23T06:50:47;7.40;;;6.80;;
3991;SDS011;2010;48.194;16.394;2022-07-23T06:53:18;11.00;;;7.60;;
3991;SDS011;2010;48.194;16.394;2022-07-23T06:55:58;7.83;;;6.53;;
3991;SDS011;2010;48.194;16.394;2022-07-23T06:58:38;7.80;;;6.97;;
3991;SDS011;2010;48.194;16.394;2022-07-23T07:01:19;7.97;;;7.20;;
3991;SDS011;2010;48.194;16.394;2022-07-23T07:03:50;6.90;;;6.30;;
3991;SDS011;2010;48.194;16.394;2022-07-23T07:06:32;7.17;;;6.50;;
3991;SDS011;2010;48.194;16.394;2022-07-23T07:09:17;10.20;;;6.03;;
3991;SDS011;2010;48.194;16.394;2022-07-23T07:11:56;7.37;;;5.73;;
3991;SDS011;2010;48.194;16.394;2022-07-23T07:14:48;6.07;;;5.57;;
3991;SDS011;2010;48.194;16.394;2022-07-23T07:17:26;7.00;;;5.30;;
3991;SDS011;2010;48.194;16.394;2022-07-23T07:20:10;6.37;;;5.73;;
3991;SDS011;2010;48.194;16.394;2022-07-23T07:22:44;6.20;;;5.40;;
3991;SDS011;2010;48.194;16.394;2022-07-23T07:25:15;7.77;;;5.17;;
3991;SDS011;2010;48.194;16.394;2022-07-23T07:27:53;4.90;;;4.50;;
3991;SDS011;2010;48.194;16.394;2022-07-23T07:30:35;5.20;;;4.63;;
3991;SDS011;2010;48.194;16.394;2022-07-23T07:33:16;10.23;;;5.73;;
3991;SDS011;2010;48.194;16.394;2022-07-23T07:35:55;6.90;;;5.67;;
3991;SDS011;2010;48.194;16.394;2022-07-23T07:38:36;5.47;;;4.97;;
3991;SDS011;2010;48.194;16.394;2022-07-23T07:41:24;5.37;;;4.87;;
3991;SDS011;2010;48.194;16.394;2022-07-23T07:44:00;5.53;;;4.67;;
3991;SDS011;2010;48.194;16.394;2022-07-23T07:46:48;5.60;;;4.93;;
3991;SDS011;2010;48.194;16.394;2022-07-23T07:49:22;5.20;;;4.90;;
3991;SDS011;2010;48.194;16.394;2022-07-23T07:52:01;5.07;;;4.77;;
3991;SDS011;2010;48.194;16.394;2022-07-23T07:54:52;5.60;;;5.20;;
3991;SDS011;2010;48.194;16.394;2022-07-23T07:57:32;5.07;;;4.67;;
3991;SDS011;2010;48.194;16.394;2022-07-23T08:00:07;5.70;;;5.20;;
3991;SDS011;2010;48.194;16.394;2022-07-23T08:03:03;5.67;;;5.27;;
3991;SDS011;2010;48.194;16.394;2022-07-23T08:05:39;5.73;;;5.43;;
3991;SDS011;2010;48.194;16.394;2022-07-23T08:08:11;5.17;;;4.87;;
3991;SDS011;2010;48.194;16.394;2022-07-23T08:10:59;10.40;;;5.47;;
3991;SDS011;2010;48.194;16.394;2022-07-23T08:13:37;5.70;;;5.30;;
3991;SDS011;2010;48.194;16.394;2022-07-23T08:16:19;6.10;;;5.27;;
3991;SDS011;2010;48.194;16.394;2022-07-23T08:19:00;5.57;;;5.17;;
3991;SDS011;2010;48.194;16.394;2022-07-23T08:21:36;6.00;;;4.97;;
3991;SDS011;2010;48.194;16.394;2022-07-23T08:24:21;5.70;;;5.20;;
3991;SDS011;2010;48.194;16.394;2022-07-23T08:26:54;5.57;;;5.13;;
3991;SDS011;2010;48.194;16.394;2022-07-23T08:29:28;6.53;;;4.80;;
3991;SDS011;2010;48.194;16.394;2022-07-23T08:32:06;6.53;;;5.70;;
3991;SDS011;2010;48.194;16.394;2022-07-23T08:34:59;5.97;;;5.47;;
3991;SDS011;2010;48.194;16.394;2022-07-23T08:37:36;7.67;;;5.10;;
3991;SDS011;2010;48.194;16.394;2022-07-23T08:40:17;5.00;;;4.60;;
3991;SDS011;2010;48.194;16.394;2022-07-23T08:42:49;7.60;;;5.90;;
3991;SDS011;2010;48.194;16.394;2022-07-23T08:45:22;5.93;;;5.53;;
3991;SDS011;2010;48.194;16.394;2022-07-23T08:47:53;5.70;;;5.30;;
3991;SDS011;2010;48.194;16.394;2022-07-23T08:50:43;5.67;;;5.27;;
3991;SDS011;2010;48.194;16.394;2022-07-23T08:53:18;6.33;;;4.80;;
3991;SDS011;2010;48.194;16.394;2022-07-23T08:56:02;5.63;;;5.23;;
3991;SDS011;2010;48.194;16.394;2022-07-23T08:58:41;5.50;;;5.20;;
3991;SDS011;2010;48.194;16.394;2022-07-23T09:01:19;9.93;;;5.57;;
3991;SDS011;2010;48.194;16.394;2022-07-23T09:03:56;6.20;;;5.60;;
3991;SDS011;2010;48.194;16.394;2022-07-23T09:06:44;5.10;;;4.70;;
3991;SDS011;2010;48.194;16.394;2022-07-23T09:09:22;6.03;;;5.40;;
3991;SDS011;2010;48.194;16.394;2022-07-23T09:12:04;5.63;;;5.13;;
3991;SDS011;2010;48.194;16.394;2022-07-23T09:14:47;5.87;;;5.47;;
3991;SDS011;2010;48.194;16.394;2022-07-23T09:17:28;6.10;;;5.60;;
3991;SDS011;2010;48.194;16.394;2022-07-23T09:20:17;6.53;;;5.50;;
3991;SDS011;2010;48.194;16.394;2022-07-23T09:22:59;6.53;;;5.90;;
3991;SDS011;2010;48.194;16.394;2022-07-23T09:25:40;5.73;;;5.23;;
3991;SDS011;2010;48.194;16.394;2022-07-23T09:28:10;6.27;;;5.67;;
3991;SDS011;2010;48.194;16.394;2022-07-23T09:30:47;6.33;;;5.90;;
3991;SDS011;2010;48.194;16.394;2022-07-23T09:33:22;5.97;;;5.60;;
3991;SDS011;2010;48.194;16.394;2022-07-23T09:36:03;7.53;;;5.67;;
3991;SDS011;2010;48.194;16.394;2022-07-23T09:39:00;6.40;;;5.80;;
3991;SDS011;2010;48.194;16.394;2022-07-23T09:41:41;6.30;;;5.90;;
3991;SDS011;2010;48.194;16.394;2022-07-23T09:44:24;6.60;;;6.10;;
3991;SDS011;2010;48.194;16.394;2022-07-23T09:47:06;6.70;;;6.07;;
3991;SDS011;2010;48.194;16.394;2022-07-23T09:49:40;6.17;;;5.63;;
3991;SDS011;2010;48.194;16.394;2022-07-23T09:52:32;7.00;;;6.30;;
3991;SDS011;2010;48.194;16.394;2022-07-23T09:55:08;6.30;;;5.80;;
3991;SDS011;2010;48.194;16.394;2022-07-23T09:57:53;8.30;;;6.20;;
3991;SDS011;2010;48.194;16.394;2022-07-23T10:00:26;6.20;;;5.70;;
3991;SDS011;2010;48.194;16.394;2022-07-23T10:03:02;12.90;;;6.03;;
3991;SDS011;2010;48.194;16.394;2022-07-23T10:05:59;5.77;;;5.47;;
3991;SDS011;2010;48.194;16.394;2022-07-23T10:08:59;6.50;;;6.00;;
3991;SDS011;2010;48.194;16.394;2022-07-23T10:11:58;6.60;;;6.13;;
3991;SDS011;2010;48.194;16.394;2022-07-23T10:14:58;6.07;;;5.63;;
3991;SDS011;2010;48.194;16.394;2022-07-23T10:17:34;6.97;;;6.37;;
3991;SDS011;2010;48.194;16.394;2022-07-23T10:20:05;7.37;;;6.63;;
3991;SDS011;2010;48.194;16.394;2022-07-23T10:22:47;6.23;;;5.60;;
3991;SDS011;2010;48.194;16.394;2022-07-23T10:25:49;8.33;;;5.93;;
3991;SDS011;2010;48.194;16.394;2022-07-23T10:28:39;7.73;;;7.10;;
3991;SDS011;2010;48.194;16.394;2022-07-23T10:31:17;6.50;;;6.03;;
3991;SDS011;2010;48.194;16.394;2022-07-23T10:34:20;7.53;;;6.47;;
3991;SDS011;2010;48.194;16.394;2022-07-23T10:37:00;6.73;;;6.23;;
3991;SDS011;2010;48.194;16.394;2022-07-23T10:39:38;7.07;;;6.57;;
3991;SDS011;2010;48.194;16.394;2022-07-23T10:42:09;7.50;;;6.90;;
3991;SDS011;2010;48.194;16.394;2022-07-23T10:44:53;7.53;;;6.67;;
3991;SDS011;2010;48.194;16.394;2022-07-23T10:47:36;7.07;;;6.47;;
3991;SDS011;2010;48.194;16.394;2022-07-23T10:50:19;9.67;;;6.83;;
3991;SDS011;2010;48.194;16.394;2022-07-23T10:53:09;6.93;;;6.33;;
3991;SDS011;2010;48.194;16.394;2022-07-23T10:55:51;7.07;;;6.50;;
3991;SDS011;2010;48.194;16.394;2022-07-23T11:01:35;7.50;;;6.20;;
3991;SDS011;2010;48.194;16.394;2022-07-23T11:04:19;7.40;;;6.70;;
3991;SDS011;2010;48.194;16.394;2022-07-23T11:09:52;8.30;;;6.00;;
3991;SDS011;2010;48.194;16.394;2022-07-23T11:12:34;7.60;;;7.00;;
3991;SDS011;2010;48.194;16.394;2022-07-23T11:15:11;7.13;;;6.63;;
3991;SDS011;2010;48.194;16.394;2022-07-23T11:20:36;7.43;;;6.80;;
3991;SDS011;2010;48.194;16.394;2022-07-23T11:23:16;7.83;;;7.13;;
3991;SDS011;2010;48.194;16.394;2022-07-23T11:25:48;7.30;;;6.70;;
3991;SDS011;2010;48.194;16.394;2022-07-23T11:28:25;7.97;;;7.37;;
3991;SDS011;2010;48.194;16.394;2022-07-23T11:31:10;7.47;;;6.87;;
3991;SDS011;2010;48.194;16.394;2022-07-23T11:37:27;8.70;;;7.90;;
3991;SDS011;2010;48.194;16.394;2022-07-23T11:40:08;7.90;;;7.13;;
3991;SDS011;2010;48.194;16.394;2022-07-23T11:42:52;7.87;;;7.37;;
3991;SDS011;2010;48.194;16.394;2022-07-23T11:45:35;7.87;;;7.17;;
3991;SDS011;2010;48.194;16.394;2022-07-23T11:48:15;8.13;;;7.33;;
3991;SDS011;2010;48.194;16.394;2022-07-23T11:50:48;8.13;;;7.43;;
3991;SDS011;2010;48.194;16.394;2022-07-23T11:53:23;8.20;;;7.30;;
3991;SDS011;2010;48.194;16.394;2022-07-23T11:56:04;7.57;;;6.87;;
3991;SDS011;2010;48.194;16.394;2022-07-23T11:58:54;8.17;;;7.60;;
3991;SDS011;2010;48.194;16.394;2022-07-23T12:01:34;8.20;;;7.50;;
3991;SDS011;2010;48.194;16.394;2022-07-23T12:04:16;8.87;;;8.17;;
3991;SDS011;2010;48.194;16.394;2022-07-23T12:06:48;8.20;;;7.70;;
3991;SDS011;2010;48.194;16.394;2022-07-23T12:09:30;8.37;;;7.67;;
3991;SDS011;2010;48.194;16.394;2022-07-23T12:12:00;9.33;;;8.13;;
3991;SDS011;2010;48.194;16.394;2022-07-23T12:14:50;8.53;;;7.93;;
3991;SDS011;2010;48.194;16.394;2022-07-23T12:17:27;8.50;;;7.77;;
3991;SDS011;2010;48.194;16.394;2022-07-23T12:20:02;7.40;;;6.90;;
3991;SDS011;2010;48.194;16.394;2022-07-23T12:22:46;10.80;;;7.07;;
3991;SDS011;2010;48.194;16.394;2022-07-23T12:25:26;9.60;;;7.30;;
3991;SDS011;2010;48.194;16.394;2022-07-23T12:28:04;8.07;;;7.27;;
3991;SDS011;2010;48.194;16.394;2022-07-23T12:30:47;7.93;;;7.20;;
3991;SDS011;2010;48.194;16.394;2022-07-23T12:33:26;7.50;;;6.90;;
3991;SDS011;2010;48.194;16.394;2022-07-23T12:36:06;7.30;;;6.80;;
3991;SDS011;2010;48.194;16.394;2022-07-23T12:38:48;7.00;;;6.30;;
3991;SDS011;2010;48.194;16.394;2022-07-23T12:41:32;7.63;;;7.07;;
3991;SDS011;2010;48.194;16.394;2022-07-23T12:44:22;6.57;;;6.13;;
3991;SDS011;2010;48.194;16.394;2022-07-23T12:47:09;6.57;;;6.07;;
3991;SDS011;2010;48.194;16.394;2022-07-23T12:49:51;6.50;;;6.10;;
3991;SDS011;2010;48.194;16.394;2022-07-23T12:52:28;7.27;;;6.33;;
3991;SDS011;2010;48.194;16.394;2022-07-23T12:55:03;6.17;;;5.70;;
3991;SDS011;2010;48.194;16.394;2022-07-23T12:57:52;6.60;;;6.00;;
3991;SDS011;2010;48.194;16.394;2022-07-23T13:00:52;9.50;;;6.53;;
3991;SDS011;2010;48.194;16.394;2022-07-23T13:03:55;11.60;;;5.50;;
3991;SDS011;2010;48.194;16.394;2022-07-23T13:06:40;6.20;;;5.60;;
3991;SDS011;2010;48.194;16.394;2022-07-23T13:09:24;6.43;;;5.40;;
3991;SDS011;2010;48.194;16.394;2022-07-23T13:12:13;5.10;;;4.60;;
3991;SDS011;2010;48.194;16.394;2022-07-23T13:14:56;4.77;;;4.30;;
3991;SDS011;2010;48.194;16.394;2022-07-23T13:17:34;4.30;;;3.90;;
3991;SDS011;2010;48.194;16.394;2022-07-23T13:20:14;8.33;;;3.60;;
3991;SDS011;2010;48.194;16.394;2022-07-23T13:22:47;3.50;;;3.20;;
3991;SDS011;2010;48.194;16.394;2022-07-23T13:25:18;3.70;;;3.50;;
3991;SDS011;2010;48.194;16.394;2022-07-23T13:28:02;3.73;;;3.53;;
3991;SDS011;2010;48.194;16.394;2022-07-23T13:30:47;3.60;;;3.37;;
3991;SDS011;2010;48.194;16.394;2022-07-23T13:33:23;3.57;;;3.37;;
3991;SDS011;2010;48.194;16.394;2022-07-23T13:36:02;3.53;;;3.27;;
3991;SDS011;2010;48.194;16.394;2022-07-23T13:38:41;6.70;;;3.07;;
3991;SDS011;2010;48.194;16.394;2022-07-23T13:41:11;3.37;;;3.17;;
3991;SDS011;2010;48.194;16.394;2022-07-23T13:43:51;3.80;;;3.50;;
3991;SDS011;2010;48.194;16.394;2022-07-23T13:46:44;4.30;;;3.50;;
3991;SDS011;2010;48.194;16.394;2022-07-23T13:49:18;3.03;;;2.73;;
3991;SDS011;2010;48.194;16.394;2022-07-23T13:52:05;3.20;;;3.00;;
3991;SDS011;2010;48.194;16.394;2022-07-23T13:54:38;3.77;;;3.50;;
3991;SDS011;2010;48.194;16.394;2022-07-23T13:57:18;3.87;;;3.57;;
3991;SDS011;2010;48.194;16.394;2022-07-23T13:59:57;3.07;;;2.97;;
3991;SDS011;2010;48.194;16.394;2022-07-23T14:02:37;3.20;;;3.00;;
3991;SDS011;2010;48.194;16.394;2022-07-23T14:05:15;3.10;;;2.80;;
3991;SDS011;2010;48.194;16.394;2022-07-23T14:07:53;3.70;;;3.50;;
3991;SDS011;2010;48.194;16.394;2022-07-23T14:10:24;3.20;;;3.10;;
3991;SDS011;2010;48.194;16.394;2022-07-23T14:12:57;3.03;;;2.83;;
3991;SDS011;2010;48.194;16.394;2022-07-23T14:15:30;3.67;;;3.37;;
3991;SDS011;2010;48.194;16.394;2022-07-23T14:18:10;3.13;;;3.00;;
3991;SDS011;2010;48.194;16.394;2022-07-23T14:20:47;4.10;;;3.70;;
3991;SDS011;2010;48.194;16.394;2022-07-23T14:23:22;3.40;;;3.20;;
3991;SDS011;2010;48.194;16.394;2022-07-23T14:26:18;4.00;;;3.07;;
3991;SDS011;2010;48.194;16.394;2022-07-23T14:29:02;3.50;;;3.30;;
3991;SDS011;2010;48.194;16.394;2022-07-23T14:31:36;3.27;;;3.07;;
3991;SDS011;2010;48.194;16.394;2022-07-23T14:34:14;3.23;;;2.97;;
3991;SDS011;2010;48.194;16.394;2022-07-23T14:36:56;2.80;;;2.70;;
3991;SDS011;2010;48.194;16.394;2022-07-23T14:39:29;3.00;;;2.80;;
3991;SDS011;2010;48.194;16.394;2022-07-23T14:42:07;3.47;;;3.17;;
3991;SDS011;2010;48.194;16.394;2022-07-23T14:44:39;3.67;;;3.37;;
3991;SDS011;2010;48.194;16.394;2022-07-23T14:47:15;4.60;;;3.00;;
3991;SDS011;2010;48.194;16.394;2022-07-23T14:50:06;3.00;;;2.80;;
3991;SDS011;2010;48.194;16.394;2022-07-23T14:52:45;3.03;;;2.83;;
3991;SDS011;2010;48.194;16.394;2022-07-23T14:55:25;3.57;;;3.17;;
3991;SDS011;2010;48.194;16.394;2022-07-23T14:57:54;3.57;;;3.33;;
3991;SDS011;2010;48.194;16.394;2022-07-23T15:00:29;3.97;;;3.60;;
3991;SDS011;2010;48.194;16.394;2022-07-23T15:03:03;3.60;;;3.30;;
3991;SDS011;2010;48.194;16.394;2022-07-23T15:05:47;5.77;;;3.30;;
3991;SDS011;2010;48.194;16.394;2022-07-23T15:08:28;4.73;;;3.50;;
3991;SDS011;2010;48.194;16.394;2022-07-23T15:11:14;3.90;;;3.60;;
3991;SDS011;2010;48.194;16.394;2022-07-23T15:13:49;3.70;;;3.40;;
3991;SDS011;2010;48.194;16.394;2022-07-23T15:16:33;3.73;;;3.53;;
3991;SDS011;2010;48.194;16.394;2022-07-23T15:19:22;4.20;;;3.90;;
3991;SDS011;2010;48.194;16.394;2022-07-23T15:21:55;4.40;;;4.00;;
3991;SDS011;2010;48.194;16.394;2022-07-23T15:24:30;4.10;;;3.70;;
3991;SDS011;2010;48.194;16.394;2022-07-23T15:27:00;3.80;;;3.50;;
3991;SDS011;2010;48.194;16.394;2022-07-23T15:29:43;3.77;;;3.47;;
3991;SDS011;2010;48.194;16.394;2022-07-23T15:32:16;4.83;;;4.43;;
3991;SDS011;2010;48.194;16.394;2022-07-23T15:34:47;5.30;;;4.27;;
3991;SDS011;2010;48.194;16.394;2022-07-23T15:37:22;4.83;;;4.33;;
3991;SDS011;2010;48.194;16.394;2022-07-23T15:40:02;6.30;;;4.50;;
3991;SDS011;2010;48.194;16.394;2022-07-23T15:42:43;4.77;;;4.47;;
3991;SDS011;2010;48.194;16.394;2022-07-23T15:45:16;4.30;;;4.00;;
3991;SDS011;2010;48.194;16.394;2022-07-23T15:47:48;6.30;;;4.43;;
3991;SDS011;2010;48.194;16.394;2022-07-23T15:50:33;4.87;;;4.30;;
3991;SDS011;2010;48.194;16.394;2022-07-23T15:53:22;4.40;;;4.00;;
3991;SDS011;2010;48.194;16.394;2022-07-23T15:56:06;4.83;;;4.40;;
3991;SDS011;2010;48.194;16.394;2022-07-23T15:58:48;5.43;;;4.63;;
3991;SDS011;2010;48.194;16.394;2022-07-23T16:01:17;4.37;;;4.00;;
3991;SDS011;2010;48.194;16.394;2022-07-23T16:03:59;4.57;;;3.90;;
3991;SDS011;2010;48.194;16.394;2022-07-23T16:06:40;4.47;;;4.10;;
3991;SDS011;2010;48.194;16.394;2022-07-23T16:09:18;4.37;;;4.07;;
3991;SDS011;2010;48.194;16.394;2022-07-23T16:11:50;4.90;;;4.50;;
3991;SDS011;2010;48.194;16.394;2022-07-23T16:14:29;4.40;;;4.20;;
3991;SDS011;2010;48.194;16.394;2022-07-23T16:17:03;5.07;;;4.57;;
3991;SDS011;2010;48.194;16.394;2022-07-23T16:19:42;4.40;;;4.10;;
3991;SDS011;2010;48.194;16.394;2022-07-23T16:22:15;4.50;;;4.10;;
3991;SDS011;2010;48.194;16.394;2022-07-23T16:24:47;7.47;;;4.10;;
3991;SDS011;2010;48.194;16.394;2022-07-23T16:27:27;4.20;;;3.80;;